sensor_id;sensor_type;location;lat;lon;timestamp;pressure;altitude;pressure_sealevel;temperature;humidity
67842;BME280;54642;59.126;37.876;2023-02-04T00:01:06;99564.81;;;-0.59;80.48
67842;BME280;54642;59.126;37.876;2023-02-04T00:03:32;99514.72;;;-0.87;80.71
67842;BME280;54642;59.126;37.876;2023-02-04T00:05:58;99570.88;;;-0.55;80.53
67842;BME280;54642;59.126;37.876;2023-02-04T00:08:23;99481.81;;;-1.08;80.51
67842;BME280;54642;59.126;37.876;2023-02-04T00:10:49;99566.44;;;-0.61;80.63
67842;BME280;54642;59.126;37.876;2023-02-04T00:13:15;99516.75;;;-1.02;80.75
67842;BME280;54642;59.126;37.876;2023-02-04T00:15:41;99553.47;;;-0.68;80.74
67842;BME280;54642;59.126;37.876;2023-02-04T00:18:06;99569.00;;;-0.59;80.74
67842;BME280;54642;59.126;37.876;2023-02-04T00:20:34;99515.44;;;-0.91;80.65
67842;BME280;54642;59.126;37.876;2023-02-04T00:22:59;99561.34;;;-0.61;80.91
67842;BME280;54642;59.126;37.876;2023-02-04T00:25:25;99569.16;;;-0.54;80.53
67842;BME280;54642;59.126;37.876;2023-02-04T00:27:51;99519.75;;;-0.88;80.68
67842;BME280;54642;59.126;37.876;2023-02-04T00:30:17;99576.81;;;-0.54;80.71
67842;BME280;54642;59.126;37.876;2023-02-04T00:32:42;99486.00;;;-1.10;80.31
67842;BME280;54642;59.126;37.876;2023-02-04T00:35:09;99539.66;;;-0.77;80.35
67842;BME280;54642;59.126;37.876;2023-02-04T00:37:35;99581.22;;;-0.49;80.55
67842;BME280;54642;59.126;37.876;2023-02-04T00:40:03;99584.50;;;-0.53;80.61
67842;BME280;54642;59.126;37.876;2023-02-04T00:42:29;99582.13;;;-0.47;80.55
67842;BME280;54642;59.126;37.876;2023-02-04T00:44:57;99588.78;;;-0.52;80.46
67842;BME280;54642;59.126;37.876;2023-02-04T00:47:23;99534.56;;;-0.77;80.61
67842;BME280;54642;59.126;37.876;2023-02-04T00:49:48;99589.88;;;-0.44;80.64
67842;BME280;54642;59.126;37.876;2023-02-04T00:52:14;99559.50;;;-0.65;80.78
67842;BME280;54642;59.126;37.876;2023-02-04T00:54:40;99592.38;;;-0.45;80.55
67842;BME280;54642;59.126;37.876;2023-02-04T00:57:06;99592.25;;;-0.50;80.67
67842;BME280;54642;59.126;37.876;2023-02-04T00:59:32;99599.31;;;-0.41;80.73
67842;BME280;54642;59.126;37.876;2023-02-04T01:01:57;99552.50;;;-0.72;80.66
67842;BME280;54642;59.126;37.876;2023-02-04T01:04:25;99574.16;;;-0.58;80.79
67842;BME280;54642;59.126;37.876;2023-02-04T01:06:52;99610.34;;;-0.41;80.77
67842;BME280;54642;59.126;37.876;2023-02-04T01:09:18;99598.53;;;-0.39;80.51
67842;BME280;54642;59.126;37.876;2023-02-04T01:11:44;99619.75;;;-0.38;80.73
67842;BME280;54642;59.126;37.876;2023-02-04T01:14:09;99603.66;;;-0.37;80.61
67842;BME280;54642;59.126;37.876;2023-02-04T01:16:38;99565.44;;;-0.66;80.51
67842;BME280;54642;59.126;37.876;2023-02-04T01:19:03;99608.03;;;-0.33;80.60
67842;BME280;54642;59.126;37.876;2023-02-04T01:21:29;99552.53;;;-0.70;80.58
67842;BME280;54642;59.126;37.876;2023-02-04T01:23:55;99609.66;;;-0.35;80.70
67842;BME280;54642;59.126;37.876;2023-02-04T01:26:21;99552.59;;;-0.69;80.59
67842;BME280;54642;59.126;37.876;2023-02-04T01:28:47;99563.56;;;-0.70;80.65
67842;BME280;54642;59.126;37.876;2023-02-04T01:31:13;99525.50;;;-0.94;80.34
67842;BME280;54642;59.126;37.876;2023-02-04T01:33:39;99628.34;;;-0.34;80.60
67842;BME280;54642;59.126;37.876;2023-02-04T01:36:06;99568.78;;;-0.67;80.71
67842;BME280;54642;59.126;37.876;2023-02-04T01:38:32;99614.53;;;-0.43;80.79
67842;BME280;54642;59.126;37.876;2023-02-04T01:40:57;99620.72;;;-0.34;80.58
67842;BME280;54642;59.126;37.876;2023-02-04T01:43:24;99628.91;;;-0.43;80.65
67842;BME280;54642;59.126;37.876;2023-02-04T01:45:50;99576.34;;;-0.68;80.63
67842;BME280;54642;59.126;37.876;2023-02-04T01:48:18;99578.22;;;-0.63;80.74
67842;BME280;54642;59.126;37.876;2023-02-04T01:50:47;99631.84;;;-0.31;80.54
67842;BME280;54642;59.126;37.876;2023-02-04T01:53:17;99564.53;;;-0.68;80.68
67842;BME280;54642;59.126;37.876;2023-02-04T01:55:44;99624.16;;;-0.34;80.78
67842;BME280;54642;59.126;37.876;2023-02-04T01:58:11;99630.09;;;-0.33;80.48
67842;BME280;54642;59.126;37.876;2023-02-04T02:00:37;99648.03;;;-0.30;80.63
67842;BME280;54642;59.126;37.876;2023-02-04T02:03:05;99568.44;;;-0.78;80.36
67842;BME280;54642;59.126;37.876;2023-02-04T02:05:51;99583.91;;;-0.71;80.54
67842;BME280;54642;59.126;37.876;2023-02-04T02:08:18;99664.09;;;-0.31;80.66
67842;BME280;54642;59.126;37.876;2023-02-04T02:10:45;99653.97;;;-0.30;80.47
67842;BME280;54642;59.126;37.876;2023-02-04T02:13:15;99623.41;;;-0.55;80.56
67842;BME280;54642;59.126;37.876;2023-02-04T02:15:42;99645.16;;;-0.40;80.53
67842;BME280;54642;59.126;37.876;2023-02-04T02:18:07;99668.41;;;-0.29;80.55
67842;BME280;54642;59.126;37.876;2023-02-04T02:20:34;99653.56;;;-0.42;80.38
67842;BME280;54642;59.126;37.876;2023-02-04T02:25:38;99579.94;;;-0.89;80.53
67842;BME280;54642;59.126;37.876;2023-02-04T02:28:10;99661.31;;;-0.39;80.55
67842;BME280;54642;59.126;37.876;2023-02-04T02:30:39;99599.00;;;-0.76;80.57
67842;BME280;54642;59.126;37.876;2023-02-04T02:33:07;99677.63;;;-0.32;80.69
67842;BME280;54642;59.126;37.876;2023-02-04T02:35:33;99669.00;;;-0.37;80.52
67842;BME280;54642;59.126;37.876;2023-02-04T02:37:59;99672.59;;;-0.31;80.53
67842;BME280;54642;59.126;37.876;2023-02-04T02:40:24;99677.00;;;-0.27;80.43
67842;BME280;54642;59.126;37.876;2023-02-04T02:42:52;99680.41;;;-0.26;80.41
67842;BME280;54642;59.126;37.876;2023-02-04T02:45:27;99688.75;;;-0.30;80.49
67842;BME280;54642;59.126;37.876;2023-02-04T02:47:56;99637.59;;;-0.64;80.61
67842;BME280;54642;59.126;37.876;2023-02-04T02:50:26;99694.72;;;-0.30;80.57
67842;BME280;54642;59.126;37.876;2023-02-04T02:52:53;99632.50;;;-0.64;80.61
67842;BME280;54642;59.126;37.876;2023-02-04T02:55:22;99682.84;;;-0.29;80.61
67842;BME280;54642;59.126;37.876;2023-02-04T02:57:50;99691.38;;;-0.27;80.54
67842;BME280;54642;59.126;37.876;2023-02-04T03:00:21;99696.75;;;-0.20;80.59
67842;BME280;54642;59.126;37.876;2023-02-04T03:05:29;99699.25;;;-0.21;80.39
67842;BME280;54642;59.126;37.876;2023-02-04T03:07:57;99656.91;;;-0.45;80.47
67842;BME280;54642;59.126;37.876;2023-02-04T03:10:23;99641.28;;;-0.54;80.43
67842;BME280;54642;59.126;37.876;2023-02-04T03:12:49;99702.06;;;-0.12;80.51
67842;BME280;54642;59.126;37.876;2023-02-04T03:15:16;99677.44;;;-0.39;80.32
67842;BME280;54642;59.126;37.876;2023-02-04T03:17:45;99674.22;;;-0.33;80.56
67842;BME280;54642;59.126;37.876;2023-02-04T03:20:12;99691.53;;;-0.23;80.53
67842;BME280;54642;59.126;37.876;2023-02-04T03:22:38;99707.91;;;-0.16;80.57
67842;BME280;54642;59.126;37.876;2023-02-04T03:25:04;99713.06;;;-0.13;80.58
67842;BME280;54642;59.126;37.876;2023-02-04T03:27:31;99734.22;;;-0.15;80.68
67842;BME280;54642;59.126;37.876;2023-02-04T03:29:57;99725.81;;;-0.13;80.64
67842;BME280;54642;59.126;37.876;2023-02-04T03:32:23;99662.06;;;-0.42;80.55
67842;BME280;54642;59.126;37.876;2023-02-04T03:34:49;99731.81;;;-0.11;80.45
67842;BME280;54642;59.126;37.876;2023-02-04T03:37:15;99711.00;;;-0.25;80.46
67842;BME280;54642;59.126;37.876;2023-02-04T03:39:41;99732.53;;;-0.15;80.41
67842;BME280;54642;59.126;37.876;2023-02-04T03:42:06;99732.97;;;-0.28;80.74
67842;BME280;54642;59.126;37.876;2023-02-04T03:44:32;99731.50;;;-0.20;80.38
67842;BME280;54642;59.126;37.876;2023-02-04T03:46:58;99744.97;;;-0.24;80.46
67842;BME280;54642;59.126;37.876;2023-02-04T03:49:24;99751.94;;;-0.18;80.63
67842;BME280;54642;59.126;37.876;2023-02-04T03:51:50;99749.25;;;-0.23;80.34
67842;BME280;54642;59.126;37.876;2023-02-04T03:54:16;99699.75;;;-0.57;80.42
67842;BME280;54642;59.126;37.876;2023-02-04T03:56:42;99751.69;;;-0.26;80.68
67842;BME280;54642;59.126;37.876;2023-02-04T03:59:08;99667.72;;;-0.76;80.75
67842;BME280;54642;59.126;37.876;2023-02-04T04:01:33;99748.13;;;-0.31;80.74
67842;BME280;54642;59.126;37.876;2023-02-04T04:03:59;99757.75;;;-0.23;80.40
67842;BME280;54642;59.126;37.876;2023-02-04T04:06:25;99722.91;;;-0.49;80.70
67842;BME280;54642;59.126;37.876;2023-02-04T04:08:51;99760.31;;;-0.23;80.59
67842;BME280;54642;59.126;37.876;2023-02-04T04:11:17;99751.59;;;-0.29;80.56
67842;BME280;54642;59.126;37.876;2023-02-04T04:13:42;99768.66;;;-0.27;80.62
67842;BME280;54642;59.126;37.876;2023-02-04T04:16:08;99732.91;;;-0.54;80.67
67842;BME280;54642;59.126;37.876;2023-02-04T04:18:34;99777.97;;;-0.27;80.67
67842;BME280;54642;59.126;37.876;2023-02-04T04:21:00;99706.06;;;-0.71;80.59
67842;BME280;54642;59.126;37.876;2023-02-04T04:23:26;99773.69;;;-0.28;80.64
67842;BME280;54642;59.126;37.876;2023-02-04T04:25:52;99774.00;;;-0.19;80.69
67842;BME280;54642;59.126;37.876;2023-02-04T04:28:18;99767.81;;;-0.26;80.82
67842;BME280;54642;59.126;37.876;2023-02-04T04:30:43;99792.75;;;-0.17;80.62
67842;BME280;54642;59.126;37.876;2023-02-04T04:33:09;99745.03;;;-0.48;80.57
67842;BME280;54642;59.126;37.876;2023-02-04T04:35:35;99793.53;;;-0.20;80.55
67842;BME280;54642;59.126;37.876;2023-02-04T04:38:02;99792.50;;;-0.25;80.64
67842;BME280;54642;59.126;37.876;2023-02-04T04:40:28;99797.53;;;-0.26;80.85
67842;BME280;54642;59.126;37.876;2023-02-04T04:42:54;99796.97;;;-0.17;80.74
67842;BME280;54642;59.126;37.876;2023-02-04T04:45:19;99759.41;;;-0.49;80.91
67842;BME280;54642;59.126;37.876;2023-02-04T04:47:45;99809.53;;;-0.22;80.67
67842;BME280;54642;59.126;37.876;2023-02-04T04:50:11;99799.03;;;-0.31;80.62
67842;BME280;54642;59.126;37.876;2023-02-04T04:52:37;99737.69;;;-0.63;80.88
67842;BME280;54642;59.126;37.876;2023-02-04T04:55:04;99746.47;;;-0.55;80.76
67842;BME280;54642;59.126;37.876;2023-02-04T04:57:30;99761.25;;;-0.45;80.85
67842;BME280;54642;59.126;37.876;2023-02-04T04:59:56;99792.63;;;-0.20;80.71
67842;BME280;54642;59.126;37.876;2023-02-04T05:02:22;99822.03;;;-0.04;80.69
67842;BME280;54642;59.126;37.876;2023-02-04T05:04:48;99762.00;;;-0.47;80.50
67842;BME280;54642;59.126;37.876;2023-02-04T05:07:14;99815.72;;;-0.15;80.57
67842;BME280;54642;59.126;37.876;2023-02-04T05:09:39;99822.03;;;-0.04;80.60
67842;BME280;54642;59.126;37.876;2023-02-04T05:12:05;99818.31;;;0.12;80.76
67842;BME280;54642;59.126;37.876;2023-02-04T05:14:31;99829.09;;;0.56;80.80
67842;BME280;54642;59.126;37.876;2023-02-04T05:16:57;99825.34;;;1.01;80.74
67842;BME280;54642;59.126;37.876;2023-02-04T05:19:23;99830.31;;;1.87;79.93
67842;BME280;54642;59.126;37.876;2023-02-04T05:21:49;99806.88;;;2.03;78.61
67842;BME280;54642;59.126;37.876;2023-02-04T05:24:15;99823.41;;;2.51;78.34
67842;BME280;54642;59.126;37.876;2023-02-04T05:26:40;99777.84;;;2.73;77.70
67842;BME280;54642;59.126;37.876;2023-02-04T05:29:06;99842.66;;;3.10;76.86
67842;BME280;54642;59.126;37.876;2023-02-04T05:31:32;99807.16;;;2.87;76.84
67842;BME280;54642;59.126;37.876;2023-02-04T05:33:58;99831.94;;;2.88;76.60
67842;BME280;54642;59.126;37.876;2023-02-04T05:36:24;99843.44;;;3.07;77.26
67842;BME280;54642;59.126;37.876;2023-02-04T05:38:50;99803.09;;;2.95;76.49
67842;BME280;54642;59.126;37.876;2023-02-04T05:41:16;99849.03;;;2.91;76.48
67842;BME280;54642;59.126;37.876;2023-02-04T05:43:41;99850.31;;;3.10;77.00
67842;BME280;54642;59.126;37.876;2023-02-04T05:46:08;99840.50;;;2.90;76.33
67842;BME280;54642;59.126;37.876;2023-02-04T05:48:33;99853.75;;;3.10;76.54
67842;BME280;54642;59.126;37.876;2023-02-04T05:50:59;99800.28;;;2.84;76.31
67842;BME280;54642;59.126;37.876;2023-02-04T05:53:25;99861.25;;;3.02;76.71
67842;BME280;54642;59.126;37.876;2023-02-04T05:55:51;99865.19;;;3.26;76.68
67842;BME280;54642;59.126;37.876;2023-02-04T05:58:17;99871.53;;;3.45;76.43
67842;BME280;54642;59.126;37.876;2023-02-04T06:00:43;99865.09;;;3.23;75.85
67842;BME280;54642;59.126;37.876;2023-02-04T06:03:09;99820.41;;;3.09;75.94
67842;BME280;54642;59.126;37.876;2023-02-04T06:05:34;99876.06;;;3.57;76.19
67842;BME280;54642;59.126;37.876;2023-02-04T06:08:00;99820.38;;;3.48;75.54
67842;BME280;54642;59.126;37.876;2023-02-04T06:10:26;99862.28;;;3.94;75.08
67842;BME280;54642;59.126;37.876;2023-02-04T06:12:52;99813.81;;;3.62;74.72
67842;BME280;54642;59.126;37.876;2023-02-04T06:15:18;99876.72;;;3.91;74.68
67842;BME280;54642;59.126;37.876;2023-02-04T06:17:45;99880.00;;;3.84;74.98
67842;BME280;54642;59.126;37.876;2023-02-04T06:20:13;99876.63;;;3.85;75.08
67842;BME280;54642;59.126;37.876;2023-02-04T06:22:39;99878.50;;;3.51;74.81
67842;BME280;54642;59.126;37.876;2023-02-04T06:25:05;99860.31;;;3.38;75.14
67842;BME280;54642;59.126;37.876;2023-02-04T06:27:31;99892.91;;;3.46;75.18
67842;BME280;54642;59.126;37.876;2023-02-04T06:29:57;99902.44;;;3.51;75.19
67842;BME280;54642;59.126;37.876;2023-02-04T06:32:23;99925.97;;;3.74;75.01
67842;BME280;54642;59.126;37.876;2023-02-04T06:34:49;99878.44;;;3.08;74.72
67842;BME280;54642;59.126;37.876;2023-02-04T06:37:15;99912.50;;;3.05;75.30
67842;BME280;54642;59.126;37.876;2023-02-04T06:39:42;99929.53;;;3.03;75.25
67842;BME280;54642;59.126;37.876;2023-02-04T06:42:09;99921.66;;;2.94;75.90
67842;BME280;54642;59.126;37.876;2023-02-04T06:44:35;99905.38;;;3.30;75.39
67842;BME280;54642;59.126;37.876;2023-02-04T06:47:00;99907.13;;;3.31;75.15
67842;BME280;54642;59.126;37.876;2023-02-04T06:49:26;99923.75;;;3.12;74.98
67842;BME280;54642;59.126;37.876;2023-02-04T06:51:53;99866.03;;;2.17;75.34
67842;BME280;54642;59.126;37.876;2023-02-04T06:54:20;99950.31;;;2.14;76.24
67842;BME280;54642;59.126;37.876;2023-02-04T06:56:46;99954.44;;;1.79;76.95
67842;BME280;54642;59.126;37.876;2023-02-04T06:59:12;99957.19;;;1.56;77.60
67842;BME280;54642;59.126;37.876;2023-02-04T07:01:37;99922.66;;;1.11;77.47
67842;BME280;54642;59.126;37.876;2023-02-04T07:04:03;99959.81;;;1.30;77.85
67842;BME280;54642;59.126;37.876;2023-02-04T07:06:29;99962.28;;;1.27;78.16
67842;BME280;54642;59.126;37.876;2023-02-04T07:08:55;99967.41;;;1.27;78.10
67842;BME280;54642;59.126;37.876;2023-02-04T07:11:21;99969.50;;;1.13;77.67
67842;BME280;54642;59.126;37.876;2023-02-04T07:13:46;99977.69;;;1.03;78.12
67842;BME280;54642;59.126;37.876;2023-02-04T07:16:12;99880.38;;;0.38;78.21
67842;BME280;54642;59.126;37.876;2023-02-04T07:18:38;99924.97;;;0.51;78.12
67842;BME280;54642;59.126;37.876;2023-02-04T07:21:04;99985.44;;;1.06;78.55
67842;BME280;54642;59.126;37.876;2023-02-04T07:23:30;99979.84;;;1.45;78.34
67842;BME280;54642;59.126;37.876;2023-02-04T07:25:56;99933.97;;;1.79;77.61
67842;BME280;54642;59.126;37.876;2023-02-04T07:28:24;99981.88;;;1.84;77.29
67842;BME280;54642;59.126;37.876;2023-02-04T07:30:50;99967.63;;;1.64;77.26
67842;BME280;54642;59.126;37.876;2023-02-04T07:33:16;99979.94;;;1.48;77.74
67842;BME280;54642;59.126;37.876;2023-02-04T07:35:42;99949.88;;;1.11;77.79
67842;BME280;54642;59.126;37.876;2023-02-04T07:38:08;100002.56;;;1.36;78.18
67842;BME280;54642;59.126;37.876;2023-02-04T07:40:34;99998.25;;;1.35;78.20
67842;BME280;54642;59.126;37.876;2023-02-04T07:43:00;99999.91;;;1.33;77.93
67842;BME280;54642;59.126;37.876;2023-02-04T07:45:27;99989.41;;;1.24;78.02
67842;BME280;54642;59.126;37.876;2023-02-04T07:47:53;100004.66;;;1.22;78.02
67842;BME280;54642;59.126;37.876;2023-02-04T07:50:18;100004.03;;;1.02;78.29
67842;BME280;54642;59.126;37.876;2023-02-04T07:52:44;100019.47;;;1.07;78.31
67842;BME280;54642;59.126;37.876;2023-02-04T07:55:10;100001.38;;;0.99;78.41
67842;BME280;54642;59.126;37.876;2023-02-04T07:57:36;99972.03;;;0.86;78.43
67842;BME280;54642;59.126;37.876;2023-02-04T08:00:03;99964.34;;;0.85;78.17
67842;BME280;54642;59.126;37.876;2023-02-04T08:02:38;100031.78;;;1.19;78.14
67842;BME280;54642;59.126;37.876;2023-02-04T08:05:04;100037.00;;;1.22;78.05
67842;BME280;54642;59.126;37.876;2023-02-04T08:07:29;100029.00;;;1.12;78.15
67842;BME280;54642;59.126;37.876;2023-02-04T08:09:57;100036.03;;;1.18;78.24
67842;BME280;54642;59.126;37.876;2023-02-04T08:12:23;100045.00;;;1.32;78.34
67842;BME280;54642;59.126;37.876;2023-02-04T08:14:48;100004.22;;;1.08;78.11
67842;BME280;54642;59.126;37.876;2023-02-04T08:17:14;100052.06;;;1.41;78.08
67842;BME280;54642;59.126;37.876;2023-02-04T08:19:40;99995.50;;;1.02;78.07
67842;BME280;54642;59.126;37.876;2023-02-04T08:22:06;100067.59;;;1.47;78.21
67842;BME280;54642;59.126;37.876;2023-02-04T08:24:32;99993.88;;;1.31;77.78
67842;BME280;54642;59.126;37.876;2023-02-04T08:26:57;100066.63;;;1.71;77.67
67842;BME280;54642;59.126;37.876;2023-02-04T08:29:23;100051.81;;;1.61;77.85
67842;BME280;54642;59.126;37.876;2023-02-04T08:31:52;100059.47;;;1.61;77.81
67842;BME280;54642;59.126;37.876;2023-02-04T08:34:18;100074.09;;;1.65;77.89
67842;BME280;54642;59.126;37.876;2023-02-04T08:36:44;100066.97;;;1.55;77.69
67842;BME280;54642;59.126;37.876;2023-02-04T08:39:10;100077.81;;;1.47;78.02
67842;BME280;54642;59.126;37.876;2023-02-04T08:41:37;100081.03;;;1.42;77.96
67842;BME280;54642;59.126;37.876;2023-02-04T08:44:03;100073.66;;;1.24;77.67
67842;BME280;54642;59.126;37.876;2023-02-04T08:46:29;100080.06;;;1.38;78.18
67842;BME280;54642;59.126;37.876;2023-02-04T08:48:55;100084.56;;;1.45;78.10
67842;BME280;54642;59.126;37.876;2023-02-04T08:51:21;100059.34;;;1.29;77.97
67842;BME280;54642;59.126;37.876;2023-02-04T08:53:46;100096.44;;;1.45;78.05
67842;BME280;54642;59.126;37.876;2023-02-04T08:56:12;100031.44;;;1.08;77.77
67842;BME280;54642;59.126;37.876;2023-02-04T08:58:43;100096.91;;;1.33;78.15
67842;BME280;54642;59.126;37.876;2023-02-04T09:01:09;100087.63;;;1.35;78.01
67842;BME280;54642;59.126;37.876;2023-02-04T09:03:36;100104.53;;;1.59;78.11
67842;BME280;54642;59.126;37.876;2023-02-04T09:06:03;100089.66;;;1.45;77.94
67842;BME280;54642;59.126;37.876;2023-02-04T09:08:29;100035.53;;;1.30;78.10
67842;BME280;54642;59.126;37.876;2023-02-04T09:10:55;100107.16;;;1.87;77.71
67842;BME280;54642;59.126;37.876;2023-02-04T09:13:21;100055.59;;;1.72;77.75
67842;BME280;54642;59.126;37.876;2023-02-04T09:15:46;100100.88;;;2.05;77.65
67842;BME280;54642;59.126;37.876;2023-02-04T09:18:12;100103.31;;;2.02;77.06
67842;BME280;54642;59.126;37.876;2023-02-04T09:20:42;100115.25;;;2.01;77.43
67842;BME280;54642;59.126;37.876;2023-02-04T09:23:09;100066.84;;;1.79;77.34
67842;BME280;54642;59.126;37.876;2023-02-04T09:25:37;100062.25;;;1.67;77.43
67842;BME280;54642;59.126;37.876;2023-02-04T09:28:04;100122.47;;;1.87;77.38
67842;BME280;54642;59.126;37.876;2023-02-04T09:30:30;100030.81;;;1.42;77.10
67842;BME280;54642;59.126;37.876;2023-02-04T09:32:56;100126.56;;;1.82;77.40
67842;BME280;54642;59.126;37.876;2023-02-04T09:35:22;100126.16;;;1.96;77.51
67842;BME280;54642;59.126;37.876;2023-02-04T09:37:48;100134.44;;;1.88;77.53
67842;BME280;54642;59.126;37.876;2023-02-04T09:40:14;100132.06;;;1.95;77.43
67842;BME280;54642;59.126;37.876;2023-02-04T09:42:42;100081.56;;;1.59;77.30
67842;BME280;54642;59.126;37.876;2023-02-04T09:45:18;100074.78;;;1.59;77.36
67842;BME280;54642;59.126;37.876;2023-02-04T09:47:44;100120.59;;;1.82;77.39
67842;BME280;54642;59.126;37.876;2023-02-04T09:50:14;100147.41;;;1.95;77.53
67842;BME280;54642;59.126;37.876;2023-02-04T09:52:40;100143.13;;;1.94;77.51
67842;BME280;54642;59.126;37.876;2023-02-04T09:55:17;100136.47;;;1.99;77.12
67842;BME280;54642;59.126;37.876;2023-02-04T09:57:44;100147.09;;;2.11;77.44
67842;BME280;54642;59.126;37.876;2023-02-04T10:00:15;100108.09;;;1.91;77.30
67842;BME280;54642;59.126;37.876;2023-02-04T10:02:42;100113.00;;;1.83;77.36
67842;BME280;54642;59.126;37.876;2023-02-04T10:05:12;100114.41;;;1.74;77.40
67842;BME280;54642;59.126;37.876;2023-02-04T10:07:39;100132.53;;;1.81;77.42
67842;BME280;54642;59.126;37.876;2023-02-04T10:10:04;100167.84;;;1.95;77.33
67842;BME280;54642;59.126;37.876;2023-02-04T10:12:30;100119.81;;;1.57;77.26
67842;BME280;54642;59.126;37.876;2023-02-04T10:14:57;100144.78;;;1.66;77.32
67842;BME280;54642;59.126;37.876;2023-02-04T10:17:25;100177.38;;;1.99;77.78
67842;BME280;54642;59.126;37.876;2023-02-04T10:19:51;100161.09;;;1.97;77.58
67842;BME280;54642;59.126;37.876;2023-02-04T10:22:20;100175.63;;;1.98;77.59
67842;BME280;54642;59.126;37.876;2023-02-04T10:24:46;100181.25;;;1.87;77.36
67842;BME280;54642;59.126;37.876;2023-02-04T10:27:13;100184.47;;;1.82;77.41
67842;BME280;54642;59.126;37.876;2023-02-04T10:29:42;100187.19;;;1.86;77.68
67842;BME280;54642;59.126;37.876;2023-02-04T10:32:25;100164.81;;;1.79;77.69
67842;BME280;54642;59.126;37.876;2023-02-04T10:34:56;100186.47;;;1.90;77.77
67842;BME280;54642;59.126;37.876;2023-02-04T10:37:23;100146.84;;;1.76;77.95
67842;BME280;54642;59.126;37.876;2023-02-04T10:39:49;100201.38;;;2.04;77.64
67842;BME280;54642;59.126;37.876;2023-02-04T10:42:24;100146.25;;;1.58;77.70
67842;BME280;54642;59.126;37.876;2023-02-04T10:44:50;100201.41;;;1.78;77.66
67842;BME280;54642;59.126;37.876;2023-02-04T10:47:25;100176.78;;;1.55;77.70
67842;BME280;54642;59.126;37.876;2023-02-04T10:50:01;100163.72;;;1.45;77.77
67842;BME280;54642;59.126;37.876;2023-02-04T10:52:39;100208.47;;;1.60;78.02
67842;BME280;54642;59.126;37.876;2023-02-04T10:55:12;100227.47;;;1.68;77.95
67842;BME280;54642;59.126;37.876;2023-02-04T10:57:40;100132.06;;;1.16;78.03
67842;BME280;54642;59.126;37.876;2023-02-04T11:00:21;100220.47;;;1.62;77.98
67842;BME280;54642;59.126;37.876;2023-02-04T11:05:29;100229.22;;;1.69;78.01
67842;BME280;54642;59.126;37.876;2023-02-04T11:07:55;100130.19;;;1.10;78.02
67842;BME280;54642;59.126;37.876;2023-02-04T11:10:23;100194.25;;;1.42;77.70
67842;BME280;54642;59.126;37.876;2023-02-04T11:15:44;100221.84;;;1.52;78.02
67842;BME280;54642;59.126;37.876;2023-02-04T11:20:37;100244.00;;;1.53;77.92
67842;BME280;54642;59.126;37.876;2023-02-04T11:26:19;100241.44;;;1.53;78.05
67842;BME280;54642;59.126;37.876;2023-02-04T11:29:08;100253.25;;;1.50;77.82
67842;BME280;54642;59.126;37.876;2023-02-04T11:32:03;100226.22;;;1.31;77.82
67842;BME280;54642;59.126;37.876;2023-02-04T11:34:29;100266.72;;;1.46;77.91
67842;BME280;54642;59.126;37.876;2023-02-04T11:39:42;100280.47;;;1.49;77.98
67842;BME280;54642;59.126;37.876;2023-02-04T11:42:23;100258.69;;;1.35;78.11
67842;BME280;54642;59.126;37.876;2023-02-04T11:45:04;100269.81;;;1.37;77.88
67842;BME280;54642;59.126;37.876;2023-02-04T11:47:35;100287.22;;;1.47;77.99
67842;BME280;54642;59.126;37.876;2023-02-04T11:52:37;100252.44;;;1.27;77.94
67842;BME280;54642;59.126;37.876;2023-02-04T11:55:03;100292.16;;;1.43;77.99
67842;BME280;54642;59.126;37.876;2023-02-04T11:57:37;100243.19;;;1.06;77.73
67842;BME280;54642;59.126;37.876;2023-02-04T12:00:05;100296.19;;;1.36;77.98
67842;BME280;54642;59.126;37.876;2023-02-04T12:02:46;100281.16;;;1.21;78.05
67842;BME280;54642;59.126;37.876;2023-02-04T12:05:15;100279.50;;;1.22;77.83
67842;BME280;54642;59.126;37.876;2023-02-04T12:07:42;100290.72;;;1.27;78.27
67842;BME280;54642;59.126;37.876;2023-02-04T12:12:43;100307.03;;;1.30;77.93
67842;BME280;54642;59.126;37.876;2023-02-04T12:15:21;100301.91;;;1.30;78.17
67842;BME280;54642;59.126;37.876;2023-02-04T12:18:05;100312.97;;;1.29;78.09
67842;BME280;54642;59.126;37.876;2023-02-04T12:20:32;100266.81;;;1.01;77.99
67842;BME280;54642;59.126;37.876;2023-02-04T12:22:58;100254.53;;;0.90;78.00
67842;BME280;54642;59.126;37.876;2023-02-04T12:25:24;100323.25;;;1.31;78.08
67842;BME280;54642;59.126;37.876;2023-02-04T12:27:52;100228.16;;;0.67;78.02
67842;BME280;54642;59.126;37.876;2023-02-04T12:30:22;100310.81;;;1.18;78.26
67842;BME280;54642;59.126;37.876;2023-02-04T12:32:49;100320.44;;;1.25;78.21
67842;BME280;54642;59.126;37.876;2023-02-04T12:35:15;100264.66;;;0.89;78.09
67842;BME280;54642;59.126;37.876;2023-02-04T12:37:41;100312.44;;;1.16;78.28
67842;BME280;54642;59.126;37.876;2023-02-04T12:40:07;100328.34;;;1.31;78.34
67842;BME280;54642;59.126;37.876;2023-02-04T12:42:33;100313.28;;;1.14;78.15
67842;BME280;54642;59.126;37.876;2023-02-04T12:44:59;100307.13;;;1.09;77.96
67842;BME280;54642;59.126;37.876;2023-02-04T12:47:24;100346.09;;;1.28;78.25
67842;BME280;54642;59.126;37.876;2023-02-04T12:49:51;100345.75;;;1.19;78.14
67842;BME280;54642;59.126;37.876;2023-02-04T12:52:17;100359.31;;;1.18;78.39
67842;BME280;54642;59.126;37.876;2023-02-04T12:54:43;100342.63;;;1.03;78.58
67842;BME280;54642;59.126;37.876;2023-02-04T12:57:09;100314.78;;;0.87;78.47
67842;BME280;54642;59.126;37.876;2023-02-04T12:59:36;100340.25;;;1.08;78.57
67842;BME280;54642;59.126;37.876;2023-02-04T13:02:01;100364.66;;;1.24;78.62
67842;BME280;54642;59.126;37.876;2023-02-04T13:04:27;100364.38;;;1.16;78.30
67842;BME280;54642;59.126;37.876;2023-02-04T13:06:53;100371.00;;;1.11;78.49
67842;BME280;54642;59.126;37.876;2023-02-04T13:09:19;100342.72;;;0.84;78.52
67842;BME280;54642;59.126;37.876;2023-02-04T13:11:45;100379.91;;;1.00;78.66
67842;BME280;54642;59.126;37.876;2023-02-04T13:14:11;100284.06;;;0.40;78.28
67842;BME280;54642;59.126;37.876;2023-02-04T13:16:36;100379.75;;;0.95;78.67